createdAt,value
2022-10-17T00:00:51.064Z,40.17
2022-10-17T00:03:18.352Z,41.53
2022-10-17T00:05:47.642Z,40.67
2022-10-17T00:08:17.258Z,41.55
2022-10-17T00:10:44.299Z,41.67
2022-10-17T00:13:12.688Z,40.92
2022-10-17T00:15:44.152Z,42.70
2022-10-17T00:18:11.521Z,41.20
2022-10-17T00:20:38.442Z,41.47
2022-10-17T00:23:05.415Z,40.08
2022-10-17T00:25:32.477Z,40.95
2022-10-17T00:27:59.616Z,42.03
2022-10-17T00:30:26.649Z,41.05
2022-10-17T00:32:53.662Z,41.65
2022-10-17T00:35:20.974Z,42.22
2022-10-17T00:37:48.759Z,41.30
2022-10-17T00:40:15.854Z,40.42
2022-10-17T00:42:43.026Z,41.78
2022-10-17T00:45:41.943Z,42.05
2022-10-17T00:48:13.399Z,40.88
2022-10-17T00:50:43.342Z,42.05
2022-10-17T00:55:51.003Z,43.00
2022-10-17T01:00:47.433Z,42.95
2022-10-17T01:03:16.463Z,44.97
2022-10-17T01:05:43.743Z,44.83
2022-10-17T01:08:12.136Z,46.05
2022-10-17T01:10:57.229Z,45.55
2022-10-17T01:13:51.441Z,43.15
2022-10-17T01:16:39.241Z,42.95
2022-10-17T01:19:30.723Z,44.00
2022-10-17T01:22:12.285Z,44.83
2022-10-17T01:25:14.680Z,46.20
2022-10-17T01:27:51.227Z,44.05
2022-10-17T01:30:43.273Z,42.00
2022-10-17T01:33:22.569Z,46.55
2022-10-17T01:36:01.835Z,42.03
2022-10-17T01:38:44.394Z,43.63
2022-10-17T01:41:47.411Z,44.97
2022-10-17T01:44:39.770Z,43.33
2022-10-17T01:47:10.942Z,43.78
2022-10-17T01:49:41.158Z,43.97
2022-10-17T01:52:16.846Z,43.13
2022-10-17T01:54:52.445Z,44.58
2022-10-17T01:57:29.887Z,44.33
2022-10-17T01:59:58.269Z,43.45
2022-10-17T02:02:27.084Z,44.35
2022-10-17T02:04:57.471Z,44.33
2022-10-17T02:07:24.628Z,43.20
2022-10-17T02:09:52.985Z,43.45
2022-10-17T02:12:38.739Z,44.90
2022-10-17T02:15:18.086Z,43.20
2022-10-17T02:17:45.459Z,44.78
2022-10-17T02:20:29.687Z,40.92
2022-10-17T02:23:01.126Z,44.50
2022-10-17T02:25:49.077Z,43.78
2022-10-17T02:28:22.000Z,43.28
2022-10-17T02:30:54.695Z,44.63
2022-10-17T02:33:39.326Z,43.10
2022-10-17T02:36:15.237Z,43.95
2022-10-17T02:38:44.622Z,43.85
2022-10-17T02:43:45.506Z,42.42
2022-10-17T02:46:21.277Z,45.20
2022-10-17T02:49:03.532Z,44.40
2022-10-17T02:51:47.837Z,45.22
2022-10-17T02:54:24.657Z,44.05
2022-10-17T02:57:01.275Z,48.85
2022-10-17T02:59:30.915Z,44.85
2022-10-17T03:01:57.960Z,46.42
2022-10-17T03:04:24.954Z,43.58
2022-10-17T03:06:52.047Z,43.65
2022-10-17T03:09:19.201Z,44.28
2022-10-17T03:11:46.215Z,43.42
2022-10-17T03:14:13.170Z,41.38
2022-10-17T03:16:40.954Z,42.97
2022-10-17T03:19:08.073Z,41.20
2022-10-17T03:21:37.571Z,43.50
2022-10-17T03:24:06.055Z,45.05
2022-10-17T03:26:33.162Z,44.92
2022-10-17T03:29:00.252Z,43.38
2022-10-17T03:31:29.244Z,42.35
2022-10-17T03:33:56.961Z,45.50
2022-10-17T03:36:24.001Z,42.53
2022-10-17T03:38:54.815Z,43.03
2022-10-17T03:41:22.813Z,43.65
2022-10-17T03:43:49.909Z,44.10
2022-10-17T03:49:04.835Z,42.58
2022-10-17T03:51:36.406Z,41.78
2022-10-17T03:54:08.706Z,43.50
2022-10-17T03:56:35.795Z,43.05
2022-10-17T03:59:06.844Z,42.10
2022-10-17T04:01:36.856Z,40.15
2022-10-17T04:04:03.947Z,42.03
2022-10-17T04:09:03.841Z,43.33
2022-10-17T04:11:41.434Z,42.35
2022-10-17T04:14:10.067Z,41.53
2022-10-17T04:16:39.313Z,41.63
2022-10-17T04:19:13.941Z,41.67
2022-10-17T04:21:44.894Z,40.63
2022-10-17T04:24:12.503Z,41.22
2022-10-17T04:26:55.053Z,41.33
2022-10-17T04:29:25.525Z,41.72
2022-10-17T04:31:56.370Z,41.80
2022-10-17T04:34:39.607Z,42.95
2022-10-17T04:37:06.669Z,39.33
2022-10-17T04:39:35.127Z,93.90
2022-10-17T04:42:03.748Z,39.83
2022-10-17T04:44:31.581Z,39.85
2022-10-17T04:46:59.379Z,41.78
2022-10-17T04:49:26.955Z,39.08
2022-10-17T04:51:58.679Z,37.70
2022-10-17T04:54:40.508Z,39.45
2022-10-17T04:57:09.996Z,40.78
2022-10-17T04:59:37.460Z,39.42
2022-10-17T05:02:24.725Z,39.97
2022-10-17T05:04:52.181Z,38.67
2022-10-17T05:07:20.584Z,41.50
2022-10-17T05:10:00.332Z,37.55
2022-10-17T05:12:27.770Z,37.50
2022-10-17T05:14:55.041Z,38.13
2022-10-17T05:17:24.892Z,38.22
2022-10-17T05:19:51.867Z,36.63
2022-10-17T05:22:19.493Z,37.50
2022-10-17T05:24:46.997Z,36.58
2022-10-17T05:27:14.069Z,35.85
2022-10-17T05:29:41.083Z,37.05
2022-10-17T05:32:18.521Z,37.47
2022-10-17T05:34:45.573Z,37.05
2022-10-17T05:37:13.559Z,35.33
2022-10-17T05:39:46.781Z,35.65
2022-10-17T05:42:16.365Z,35.80
2022-10-17T05:44:43.429Z,37.40
2022-10-17T05:47:10.659Z,36.75
2022-10-17T05:49:46.284Z,34.72
2022-10-17T05:52:16.941Z,36.70
2022-10-17T05:55:23.568Z,35.08
2022-10-17T05:57:54.040Z,33.63
2022-10-17T06:00:23.614Z,32.20
2022-10-17T06:02:57.319Z,33.15
2022-10-17T06:05:24.984Z,33.13
2022-10-17T06:07:56.984Z,31.75
2022-10-17T06:10:27.326Z,32.17
2022-10-17T06:12:55.282Z,33.28
2022-10-17T06:15:22.343Z,31.90
2022-10-17T06:17:56.039Z,30.67
2022-10-17T06:20:23.056Z,31.27
2022-10-17T06:22:50.277Z,32.72
2022-10-17T06:25:26.899Z,31.40
2022-10-17T06:30:41.641Z,28.80
2022-10-17T06:33:08.687Z,28.75
2022-10-17T06:35:36.122Z,30.20
2022-10-17T06:38:04.583Z,29.80
2022-10-17T06:40:32.854Z,29.08
2022-10-17T06:43:00.135Z,28.90
2022-10-17T06:48:38.190Z,29.08
2022-10-17T06:51:12.016Z,29.25
2022-10-17T06:53:48.031Z,28.75
2022-10-17T06:56:50.583Z,28.63
2022-10-17T07:01:56.805Z,28.90
2022-10-17T07:04:25.378Z,30.20
2022-10-17T07:06:52.441Z,29.45
2022-10-17T07:09:23.061Z,29.75
2022-10-17T07:11:50.787Z,28.73
2022-10-17T07:14:19.114Z,29.42
2022-10-17T07:16:47.091Z,28.92
2022-10-17T07:19:23.374Z,29.38
2022-10-17T07:21:51.057Z,29.85
2022-10-17T07:24:18.157Z,28.77
2022-10-17T07:26:49.064Z,28.63
2022-10-17T07:29:16.604Z,31.05
2022-10-17T07:31:49.101Z,29.95
2022-10-17T07:34:16.366Z,29.67
2022-10-17T07:36:44.065Z,31.27
2022-10-17T07:39:13.317Z,28.25
2022-10-17T07:41:40.901Z,29.00
2022-10-17T07:44:08.368Z,29.55
2022-10-17T07:46:41.608Z,28.30
2022-10-17T07:49:08.911Z,29.00
2022-10-17T07:51:36.168Z,30.02
2022-10-17T07:54:06.045Z,28.77
2022-10-17T07:59:02.716Z,30.45
2022-10-17T08:01:32.353Z,29.70
2022-10-17T08:03:59.370Z,31.38
2022-10-17T08:06:26.576Z,30.50
2022-10-17T08:08:53.532Z,31.17
2022-10-17T08:11:21.440Z,31.23
2022-10-17T08:13:48.470Z,27.85
2022-10-17T08:16:15.739Z,29.48
2022-10-17T08:18:43.775Z,29.25
2022-10-17T08:21:13.212Z,31.50
2022-10-17T08:23:40.731Z,30.80
2022-10-17T08:26:10.882Z,37.05
2022-10-17T08:28:39.772Z,32.22
2022-10-17T08:31:13.017Z,31.77
2022-10-17T08:33:40.947Z,34.28
2022-10-17T08:36:09.421Z,31.00
2022-10-17T08:38:40.371Z,35.15
2022-10-17T08:41:25.715Z,31.48
2022-10-17T08:44:21.340Z,31.70
2022-10-17T08:46:51.913Z,33.15
2022-10-17T08:49:48.163Z,34.78
2022-10-17T08:52:25.777Z,31.83
2022-10-17T08:54:53.253Z,34.78
2022-10-17T08:57:22.784Z,33.67
2022-10-17T08:59:52.599Z,33.33
2022-10-17T09:02:30.811Z,27.13
2022-10-17T09:05:29.022Z,26.08
2022-10-17T09:08:24.848Z,28.15
2022-10-17T09:10:54.708Z,32.25
2022-10-17T09:13:27.803Z,28.70
2022-10-17T09:16:30.124Z,27.92
2022-10-17T09:19:12.705Z,25.55
2022-10-17T09:21:39.720Z,24.17
2022-10-17T09:24:16.345Z,24.73
2022-10-17T09:26:46.022Z,21.23
2022-10-17T09:29:30.840Z,22.20
2022-10-17T09:32:10.530Z,23.42
2022-10-17T09:34:37.763Z,25.00
2022-10-17T09:37:13.176Z,21.90
2022-10-17T09:39:42.440Z,21.35
2022-10-17T09:42:14.772Z,21.90
2022-10-17T09:45:15.972Z,23.45
2022-10-17T09:48:02.074Z,21.67
2022-10-17T09:50:31.838Z,21.13
2022-10-17T09:53:15.127Z,22.17
2022-10-17T09:55:45.425Z,21.30
2022-10-17T09:58:12.730Z,19.92
2022-10-17T10:00:45.340Z,20.17
2022-10-17T10:03:18.239Z,20.95
2022-10-17T10:06:18.907Z,20.67
2022-10-17T10:08:58.796Z,21.77
2022-10-17T10:11:45.714Z,21.88
2022-10-17T10:14:21.518Z,22.25
2022-10-17T10:16:50.197Z,22.02
2022-10-17T10:19:34.798Z,21.10
2022-10-17T10:22:04.530Z,23.15
2022-10-17T10:27:03.066Z,21.40
2022-10-17T10:29:41.917Z,20.80
2022-10-17T10:32:30.909Z,21.90
2022-10-17T10:35:16.518Z,25.13
2022-10-17T10:37:48.637Z,22.00
2022-10-17T10:40:32.936Z,21.38
2022-10-17T10:43:05.221Z,21.00
2022-10-17T10:45:53.853Z,21.75
2022-10-17T10:48:50.836Z,21.05
2022-10-17T10:51:23.560Z,22.10
2022-10-17T10:54:05.512Z,20.30
2022-10-17T10:56:45.074Z,20.45
2022-10-17T11:01:53.663Z,20.83
2022-10-17T11:04:23.700Z,19.63
2022-10-17T11:06:58.539Z,18.42
2022-10-17T11:10:10.523Z,17.60
2022-10-17T11:12:49.628Z,18.08
2022-10-17T11:15:37.118Z,17.00
2022-10-17T11:18:08.552Z,17.35
2022-10-17T11:20:58.397Z,19.13
2022-10-17T11:24:06.857Z,16.45
2022-10-17T11:26:50.842Z,16.05
2022-10-17T11:29:17.879Z,16.63
2022-10-17T11:31:50.634Z,16.67
2022-10-17T11:34:27.810Z,14.65
2022-10-17T11:36:59.878Z,14.05
2022-10-17T11:39:42.311Z,14.18
2022-10-17T11:42:16.425Z,14.85
2022-10-17T11:44:44.843Z,13.90
2022-10-17T11:47:14.833Z,14.20
2022-10-17T11:49:50.838Z,13.77
2022-10-17T11:52:55.560Z,13.82
2022-10-17T11:55:26.278Z,14.70
2022-10-17T11:57:59.361Z,13.93
2022-10-17T12:00:50.846Z,15.52
2022-10-17T12:03:36.628Z,14.20
2022-10-17T12:06:29.191Z,14.35
2022-10-17T12:09:04.383Z,13.35
2022-10-17T12:11:34.889Z,14.75
2022-10-17T12:14:05.880Z,13.82
2022-10-17T12:16:38.704Z,14.18
2022-10-17T12:19:11.951Z,14.00
2022-10-17T12:22:14.400Z,14.88
2022-10-17T12:24:44.518Z,13.60
2022-10-17T12:27:30.213Z,15.30
2022-10-17T12:30:04.507Z,15.15
2022-10-17T12:32:46.911Z,15.55
2022-10-17T12:35:24.938Z,15.10
2022-10-17T12:37:52.475Z,14.82
2022-10-17T12:40:35.339Z,13.43
2022-10-17T12:43:23.622Z,13.57
2022-10-17T12:45:52.838Z,15.30
2022-10-17T12:48:34.998Z,14.90
2022-10-17T12:53:59.430Z,13.93
2022-10-17T12:56:46.119Z,14.38
2022-10-17T12:59:29.271Z,14.25
2022-10-17T13:02:01.793Z,13.73
2022-10-17T13:04:30.790Z,13.95
2022-10-17T13:07:00.876Z,13.70
2022-10-17T13:09:42.726Z,14.18
2022-10-17T13:12:15.692Z,13.13
2022-10-17T13:14:43.718Z,13.65
2022-10-17T13:17:28.947Z,13.73
2022-10-17T13:19:56.844Z,13.65
2022-10-17T13:22:27.448Z,14.27
2022-10-17T13:25:14.202Z,14.20
2022-10-17T13:27:41.448Z,15.60
2022-10-17T13:30:29.412Z,15.27
2022-10-17T13:33:00.030Z,13.70
2022-10-17T13:35:58.985Z,13.35
2022-10-17T13:38:27.677Z,14.35
2022-10-17T13:41:01.682Z,13.50
2022-10-17T13:43:38.942Z,14.65
2022-10-17T13:46:32.550Z,13.10
2022-10-17T13:48:54.588Z,14.63
2022-10-17T13:51:22.392Z,14.35
2022-10-17T13:53:49.476Z,12.90
2022-10-17T13:56:30.112Z,13.07
2022-10-17T13:59:14.274Z,13.23
2022-10-17T14:01:41.604Z,15.27
2022-10-17T14:04:19.287Z,13.43
2022-10-17T14:06:51.198Z,13.82
2022-10-17T14:09:30.912Z,13.07
2022-10-17T14:12:13.006Z,15.25
2022-10-17T14:15:09.364Z,13.13
2022-10-17T14:17:34.560Z,14.77
2022-10-17T14:20:34.497Z,14.43
2022-10-17T14:25:40.968Z,15.85
2022-10-17T14:28:09.680Z,13.63
2022-10-17T14:30:57.570Z,13.90
2022-10-17T14:33:30.882Z,14.15
2022-10-17T14:36:00.379Z,13.57
2022-10-17T14:38:29.847Z,13.43
2022-10-17T14:41:40.817Z,13.75
2022-10-17T14:43:56.306Z,13.15
2022-10-17T14:46:23.707Z,12.77
2022-10-17T14:49:03.267Z,12.82
2022-10-17T14:54:24.970Z,13.48
2022-10-17T14:56:54.076Z,12.70
2022-10-17T14:59:52.834Z,13.07
2022-10-17T15:02:13.264Z,11.98
2022-10-17T15:04:40.552Z,12.52
2022-10-17T15:07:07.953Z,11.98
2022-10-17T15:09:34.940Z,12.23
2022-10-17T15:12:04.283Z,12.50
2022-10-17T15:14:31.620Z,13.15
2022-10-17T15:16:58.712Z,13.27
2022-10-17T15:19:25.765Z,12.35
2022-10-17T15:21:52.681Z,12.75
2022-10-17T15:24:19.648Z,12.75
2022-10-17T15:26:46.639Z,13.88
2022-10-17T15:29:15.673Z,12.60
2022-10-17T15:31:42.737Z,12.95
2022-10-17T15:34:09.752Z,13.30
2022-10-17T15:36:40.611Z,13.38
2022-10-17T15:39:10.049Z,13.20
2022-10-17T15:41:37.084Z,13.73
2022-10-17T15:44:04.302Z,12.32
2022-10-17T15:46:35.146Z,12.68
2022-10-17T15:49:04.984Z,13.98
2022-10-17T15:51:31.943Z,13.52
2022-10-17T15:54:01.639Z,12.70
2022-10-17T15:56:31.970Z,13.73
2022-10-17T15:58:59.235Z,14.50
2022-10-17T16:01:29.794Z,13.63
2022-10-17T16:03:57.776Z,14.10
2022-10-17T16:06:24.979Z,13.88
2022-10-17T16:08:52.735Z,13.38
2022-10-17T16:11:36.357Z,13.73
2022-10-17T16:14:06.962Z,13.40
2022-10-17T16:16:34.335Z,14.52
2022-10-17T16:19:02.393Z,14.70
2022-10-17T16:21:32.768Z,17.50
2022-10-17T16:24:00.798Z,15.73
2022-10-17T16:26:28.288Z,14.45
2022-10-17T16:28:57.554Z,14.77
2022-10-17T16:31:29.450Z,16.65
2022-10-17T16:33:58.289Z,17.02
2022-10-17T16:36:25.587Z,17.57
2022-10-17T16:38:54.266Z,16.70
2022-10-17T16:41:25.356Z,18.50
2022-10-17T16:43:54.352Z,18.77
2022-10-17T16:46:22.291Z,17.55
2022-10-17T16:48:49.598Z,17.60
2022-10-17T16:51:19.045Z,17.92
2022-10-17T16:53:50.169Z,18.60
2022-10-17T16:56:20.339Z,18.15
2022-10-17T16:58:48.272Z,18.73
2022-10-17T17:01:21.092Z,18.40
2022-10-17T17:03:48.344Z,18.50
2022-10-17T17:06:20.895Z,19.02
2022-10-17T17:08:48.161Z,19.27
2022-10-17T17:11:20.018Z,19.60
2022-10-17T17:13:47.523Z,20.15
2022-10-17T17:16:21.612Z,20.13
2022-10-17T17:18:55.089Z,19.73
2022-10-17T17:21:22.077Z,20.10
2022-10-17T17:23:49.087Z,20.52
2022-10-17T17:26:19.495Z,20.48
2022-10-17T17:28:47.585Z,21.27
2022-10-17T17:31:23.302Z,20.35
2022-10-17T17:33:51.694Z,20.70
2022-10-17T17:36:22.161Z,21.02
2022-10-17T17:38:50.443Z,22.63
2022-10-17T17:41:19.092Z,22.08
2022-10-17T17:43:47.590Z,20.25
2022-10-17T17:46:17.099Z,21.00
2022-10-17T17:48:46.749Z,21.80
2022-10-17T17:51:17.236Z,21.92
2022-10-17T17:53:44.979Z,21.83
2022-10-17T17:56:18.002Z,21.88
2022-10-17T17:58:48.357Z,20.67
2022-10-17T18:01:20.626Z,20.85
2022-10-17T18:03:49.411Z,22.08
2022-10-17T18:06:17.175Z,22.27
2022-10-17T18:08:46.176Z,21.85
2022-10-17T18:11:15.896Z,21.63
2022-10-17T18:13:45.309Z,22.25
2022-10-17T18:16:13.407Z,21.95
2022-10-17T18:18:42.155Z,20.75
2022-10-17T18:21:10.841Z,21.70
2022-10-17T18:23:41.808Z,20.63
2022-10-17T18:26:10.748Z,21.80
2022-10-17T18:28:39.491Z,21.60
2022-10-17T18:31:07.679Z,20.80
2022-10-17T18:33:35.268Z,22.73
2022-10-17T18:36:07.182Z,22.08
2022-10-17T18:38:34.865Z,44.03
2022-10-17T18:41:04.333Z,23.05
2022-10-17T18:43:33.603Z,23.95
2022-10-17T18:46:15.293Z,24.63
2022-10-17T18:48:44.666Z,24.08
2022-10-17T18:51:13.149Z,25.23
2022-10-17T18:53:48.171Z,23.70
2022-10-17T18:56:15.851Z,23.50
2022-10-17T18:58:43.532Z,24.80
2022-10-17T19:01:15.577Z,25.70
2022-10-17T19:03:44.262Z,24.50
2022-10-17T19:06:14.067Z,24.98
2022-10-17T19:11:12.397Z,25.35
2022-10-17T19:13:39.836Z,24.30
2022-10-17T19:16:13.788Z,25.73
2022-10-17T19:18:41.627Z,25.65
2022-10-17T19:21:11.231Z,23.45
2022-10-17T19:23:39.071Z,23.70
2022-10-17T19:26:10.293Z,22.42
2022-10-17T19:28:39.580Z,22.67
2022-10-17T19:31:07.253Z,22.33
2022-10-17T19:33:35.105Z,20.38
2022-10-17T19:36:05.436Z,19.65
2022-10-17T19:38:32.663Z,20.42
2022-10-17T19:43:47.218Z,19.15
2022-10-17T19:46:17.931Z,17.10
2022-10-17T19:48:45.332Z,18.15
2022-10-17T19:51:14.723Z,16.10
2022-10-17T19:53:42.621Z,18.55
2022-10-17T19:56:10.836Z,18.95
2022-10-17T19:58:44.876Z,16.45
2022-10-17T20:01:20.139Z,17.63
2022-10-17T20:03:47.602Z,18.58
2022-10-17T20:06:15.257Z,17.00
2022-10-17T20:08:42.656Z,18.02
2022-10-17T20:11:22.170Z,16.85
2022-10-17T20:14:00.345Z,18.50
2022-10-17T20:16:31.662Z,17.30
2022-10-17T20:19:05.312Z,19.98
2022-10-17T20:21:35.074Z,16.60
2022-10-17T20:24:04.553Z,17.30
2022-10-17T20:26:39.627Z,16.10
2022-10-17T20:29:11.719Z,17.00
2022-10-17T20:31:40.644Z,17.98
2022-10-17T20:34:25.004Z,16.35
2022-10-17T20:36:51.968Z,16.08
2022-10-17T20:39:20.669Z,16.00
2022-10-17T20:41:48.109Z,16.52
2022-10-17T20:44:15.204Z,15.82
2022-10-17T20:46:48.748Z,14.93
2022-10-17T20:49:24.900Z,17.02
2022-10-17T20:51:52.060Z,16.17
2022-10-17T20:54:19.048Z,15.85
2022-10-17T20:56:45.992Z,15.18
2022-10-17T20:59:16.435Z,15.30
2022-10-17T21:01:45.110Z,15.52
2022-10-17T21:04:45.305Z,15.40
2022-10-17T21:06:59.912Z,15.45
2022-10-17T21:09:26.907Z,15.07
2022-10-17T21:11:55.871Z,15.30
2022-10-17T21:14:24.515Z,15.77
2022-10-17T21:16:54.811Z,15.10
2022-10-17T21:19:22.084Z,15.77
2022-10-17T21:21:49.174Z,16.73
2022-10-17T21:24:19.373Z,16.30
2022-10-17T21:26:50.199Z,16.25
2022-10-17T21:29:17.208Z,17.63
2022-10-17T21:31:45.294Z,16.25
2022-10-17T21:34:17.759Z,17.95
2022-10-17T21:36:45.227Z,18.70
2022-10-17T21:39:18.269Z,18.02
2022-10-17T21:41:45.437Z,17.98
2022-10-17T21:44:18.218Z,17.50
2022-10-17T21:46:46.825Z,18.60
2022-10-17T21:49:16.799Z,18.38
2022-10-17T21:51:44.970Z,17.98
2022-10-17T21:54:12.238Z,17.48
2022-10-17T21:56:39.738Z,17.92
2022-10-17T21:59:07.331Z,18.00
2022-10-17T22:01:37.417Z,18.88
2022-10-17T22:04:06.718Z,17.70
2022-10-17T22:06:40.087Z,18.17
2022-10-17T22:09:15.928Z,18.13
2022-10-17T22:11:46.805Z,19.75
2022-10-17T22:14:16.792Z,19.60
2022-10-17T22:19:14.764Z,18.50
2022-10-17T22:21:41.894Z,19.48
2022-10-17T22:24:11.851Z,20.25
2022-10-17T22:26:39.740Z,20.48
2022-10-17T22:29:08.186Z,20.88
2022-10-17T22:31:36.470Z,20.33
2022-10-17T22:34:05.512Z,22.08
2022-10-17T22:36:33.715Z,21.38
2022-10-17T22:39:01.041Z,21.02
2022-10-17T22:41:28.142Z,21.88
2022-10-17T22:43:55.149Z,23.40
2022-10-17T22:46:23.776Z,86.43
2022-10-17T22:48:50.783Z,23.00
2022-10-17T22:51:17.838Z,23.60
2022-10-17T22:53:45.135Z,22.35
2022-10-17T22:56:15.204Z,22.95
2022-10-17T22:58:42.668Z,22.73
2022-10-17T23:01:15.816Z,23.83
2022-10-17T23:03:43.066Z,21.70
2022-10-17T23:06:10.392Z,23.48
2022-10-17T23:08:38.105Z,26.08
2022-10-17T23:11:05.915Z,23.52
2022-10-17T23:13:32.977Z,23.60
2022-10-17T23:16:00.047Z,23.02
2022-10-17T23:18:27.218Z,23.52
2022-10-17T23:20:54.448Z,24.73
2022-10-17T23:23:22.316Z,23.52
2022-10-17T23:25:50.017Z,24.60
2022-10-17T23:28:17.433Z,24.25
2022-10-17T23:30:44.707Z,24.10
2022-10-17T23:33:13.560Z,25.88
2022-10-17T23:35:41.057Z,26.45
2022-10-17T23:38:08.234Z,26.88
2022-10-17T23:40:35.525Z,28.50
2022-10-17T23:43:03.479Z,26.95
2022-10-17T23:45:34.659Z,28.33
2022-10-17T23:48:05.282Z,28.05
2022-10-17T23:50:32.225Z,27.80
2022-10-17T23:52:59.244Z,27.50
2022-10-17T23:55:28.212Z,28.23
2022-10-17T23:57:55.120Z,30.42
